Aviation Digital Data Service (ADDS)

Output produced by METARs form (1720 UTC 21 September 2019)
found at http://aviationweather.gov/metar/data/
 
KHKS 211653Z 15012G16KT 10SM CLR 31/17 A3020 RMK AO2 SLP219 T03060172
KHKS 211120Z 2112/2212 00000KT P6SM FEW060 FEW300 
     FM211500 13009KT P6SM FEW060 FEW300